Hlavní strana
METAR-TAF:

METAR-TAF

Letiště :

Nairobi, Keňa

zeměpisná šířka: 01-19S, zeměpisná délka: 036-49E, výška: 1683 m

Aktuální stav počasí

Zpráva byla vytvořena před 45 minutami, v 17:00 UTC
Východoseverovýchodní vítr 15 kt
Teplota 23°C
Vlhkost vzduchu 53%
Tlak 1018 hPa
Viditelnost 10 km a více
Polojasno ve výšce 2500 ft

METAR: HKNW 181700Z 07015KT 9999 SCT025 23/13 Q1018

Čas: 20:45 (17:45 UTC)


TAF: chybějící

Stav a předpovědi počasí z více než 4 000 letišť (zprávy METAR a TAF).

Červené a žluté tečky na mapě představují dostupné meteorologické stanice.

Když kurzor umístíte na tečku, zobrazí se název stanice.

Pak kliknutím zobrazíte stav a předpověď počasí.

Chcete-li změnit mapu, kliknutím na zelené tlačítko se znaménkem +mapu přiblížíte, kliknutím na zelené tlačítko se znaménkem – mapu oddálíte a kliknutím na zelené šipky přejdete na sousední mapy.


METAR-TAF: